createdAt,value
2023-02-28T00:03:57.295Z,4.23
2023-02-28T00:08:54.517Z,4.65
2023-02-28T00:13:52.732Z,4.23
2023-02-28T00:18:50.831Z,4.77
2023-02-28T00:23:48.047Z,4.67
2023-02-28T00:28:45.188Z,4.84
2023-02-28T00:33:43.076Z,4.27
2023-02-28T00:38:41.931Z,4.90
2023-02-28T00:43:43.099Z,4.71
2023-02-28T00:48:42.599Z,4.67
2023-02-28T00:53:39.736Z,4.61
2023-02-28T00:58:37.329Z,4.04
2023-02-28T01:03:36.660Z,4.15
2023-02-28T01:08:39.301Z,4.15
2023-02-28T01:13:36.670Z,3.86
2023-02-28T01:18:33.764Z,4.49
2023-02-28T01:23:34.632Z,4.72
2023-02-28T01:28:33.176Z,4.70
2023-02-28T01:33:34.779Z,4.13
2023-02-28T01:38:32.245Z,4.43
2023-02-28T01:43:33.134Z,3.85
2023-02-28T01:48:36.078Z,4.22
2023-02-28T01:53:36.463Z,4.12
2023-02-28T01:58:40.831Z,3.96
2023-02-28T02:08:48.818Z,4.24
2023-02-28T02:14:29.804Z,4.40
2023-02-28T02:20:25.245Z,4.39
2023-02-28T02:25:37.257Z,3.97
2023-02-28T02:30:57.166Z,4.36
2023-02-28T02:36:00.642Z,4.18
2023-02-28T02:41:19.865Z,3.88
2023-02-28T02:46:40.113Z,3.62
2023-02-28T02:51:44.125Z,3.61
2023-02-28T02:56:52.038Z,3.64
2023-02-28T03:02:00.109Z,4.10
2023-02-28T03:07:26.716Z,4.06
2023-02-28T03:13:21.683Z,3.41
2023-02-28T03:18:47.049Z,3.78
2023-02-28T03:38:27.121Z,4.29
2023-02-28T03:43:09.744Z,3.93
2023-02-28T03:49:25.248Z,4.22
2023-02-28T04:54:06.060Z,3.58
2023-02-28T05:05:46.207Z,3.69
2023-02-28T05:10:59.107Z,3.44
2023-02-28T05:16:14.879Z,4.18
2023-02-28T05:55:47.747Z,4.13
2023-02-28T06:02:00.519Z,4.25
2023-02-28T06:19:59.329Z,4.04
2023-02-28T06:25:24.294Z,4.31
2023-02-28T06:30:29.207Z,3.93
2023-02-28T06:35:43.883Z,4.21
2023-02-28T06:40:47.774Z,3.84
2023-02-28T06:46:00.704Z,4.40
2023-02-28T06:51:14.627Z,3.75
2023-02-28T06:56:56.426Z,3.63
2023-02-28T07:02:42.860Z,3.79
2023-02-28T07:09:21.294Z,4.64
2023-02-28T07:26:41.972Z,4.54
2023-02-28T07:32:31.986Z,4.64
2023-02-28T07:37:50.934Z,4.43
2023-02-28T07:48:58.825Z,4.33
2023-02-28T07:55:03.413Z,4.03
2023-02-28T08:00:59.990Z,3.86
2023-02-28T08:06:08.115Z,4.04
2023-02-28T08:11:45.779Z,4.63
2023-02-28T08:16:56.460Z,4.60
2023-02-28T08:22:44.810Z,4.91
2023-02-28T08:28:30.170Z,4.07
2023-02-28T08:33:50.598Z,4.82
2023-02-28T08:38:57.382Z,5.17
2023-02-28T08:44:26.238Z,5.13
2023-02-28T08:49:28.444Z,4.78
2023-02-28T08:54:44.864Z,4.60
2023-02-28T08:59:49.376Z,5.20
2023-02-28T09:05:16.130Z,4.61
2023-02-28T09:10:37.210Z,5.00
2023-02-28T09:16:07.172Z,4.55
2023-02-28T09:21:39.666Z,4.88
2023-02-28T09:32:21.599Z,5.09
2023-02-28T09:37:51.336Z,5.32
2023-02-28T09:43:20.172Z,5.57
2023-02-28T09:48:40.780Z,5.54
2023-02-28T09:54:12.531Z,5.46
2023-02-28T10:00:00.718Z,4.92
2023-02-28T10:05:12.112Z,5.40
2023-02-28T10:16:40.185Z,5.38
2023-02-28T10:22:50.291Z,5.61
2023-02-28T10:35:08.436Z,5.06
2023-02-28T10:53:44.726Z,5.56
2023-02-28T10:59:55.090Z,5.77
2023-02-28T11:11:40.126Z,5.26
2023-02-28T11:17:06.951Z,5.87
2023-02-28T11:22:46.941Z,5.56
2023-02-28T11:29:16.372Z,5.96
2023-02-28T11:54:58.202Z,5.82
2023-02-28T12:32:47.083Z,5.37
2023-02-28T12:38:36.382Z,5.15
2023-02-28T12:44:20.235Z,5.31
2023-02-28T12:49:39.326Z,5.62
2023-02-28T12:55:02.396Z,5.60
2023-02-28T13:00:17.443Z,5.48
2023-02-28T13:06:20.455Z,6.05
2023-02-28T13:11:37.055Z,5.87
2023-02-28T13:23:08.645Z,5.73
2023-02-28T13:34:21.485Z,5.40
2023-02-28T13:39:58.860Z,6.26
2023-02-28T13:51:58.190Z,5.63
2023-02-28T14:04:11.471Z,5.68
2023-02-28T14:09:54.242Z,5.71
2023-02-28T14:15:39.697Z,5.74
2023-02-28T14:21:35.015Z,6.08
2023-02-28T14:27:37.982Z,5.50
2023-02-28T14:57:49.749Z,5.72
2023-02-28T15:04:11.997Z,6.43
2023-02-28T21:20:37.745Z,5.22
2023-02-28T21:25:35.001Z,5.30
2023-02-28T21:30:31.978Z,5.61
2023-02-28T21:35:29.008Z,5.65
2023-02-28T21:40:26.973Z,5.31
2023-02-28T21:45:23.822Z,5.39
2023-02-28T21:50:20.778Z,5.33
2023-02-28T21:55:17.781Z,5.63
2023-02-28T22:00:16.549Z,5.58
2023-02-28T22:05:13.629Z,5.01
2023-02-28T22:10:12.437Z,5.73
2023-02-28T22:15:10.292Z,5.17
2023-02-28T22:20:09.664Z,5.49
2023-02-28T22:25:09.112Z,5.18
2023-02-28T22:30:07.151Z,5.55
2023-02-28T22:35:04.950Z,5.13
2023-02-28T22:40:02.985Z,5.72
2023-02-28T22:45:00.035Z,5.58
2023-02-28T22:50:00.020Z,5.26
2023-02-28T22:54:58.332Z,5.75
2023-02-28T22:59:56.275Z,5.74
2023-02-28T23:04:55.153Z,5.70
2023-02-28T23:09:54.153Z,5.66
2023-02-28T23:14:51.624Z,5.36
2023-02-28T23:19:49.509Z,5.71
2023-02-28T23:24:46.510Z,5.51
2023-02-28T23:29:43.598Z,5.81
2023-02-28T23:34:40.869Z,5.57
2023-02-28T23:39:43.752Z,5.80
2023-02-28T23:44:40.961Z,5.64
2023-02-28T23:49:38.064Z,5.28
2023-02-28T23:54:36.262Z,5.73
2023-02-28T23:59:34.654Z,5.57
